Time;durP1;ratioP1;P1;durP2;ratioP2;P2;SDS_P1;SDS_P2;PMS_P1;PMS_P2;Temp;Humidity;BMP_temperature;BMP_pressure;BME280_temperature;BME280_humidity;BME280_pressure;Samples;Min_cycle;Max_cycle;Signal;HPM_P1;HPM_P2
2021/04/15 04:51:56;;;;;;;18.47;11.23;;;-0.80;99.90;;;;;;5285867;23;20054;-84
2021/04/15 04:54:24;;;;;;;15.15;10.48;;;-0.70;99.90;;;;;;4973989;28;20049;-84
2021/04/15 04:56:57;;;;;;;18.27;11.17;;;-0.60;99.90;;;;;;4974523;28;20476;-86
2021/04/15 04:59:29;;;;;;;16.02;10.60;;;-0.70;99.90;;;;;;4974080;28;20085;-85
2021/04/15 05:01:55;;;;;;;19.60;11.30;;;-0.70;99.90;;;;;;5001653;28;20333;-85
2021/04/15 05:04:25;;;;;;;16.55;10.85;;;-0.60;99.90;;;;;;4991511;28;20042;-85
2021/04/15 05:07:02;;;;;;;19.33;9.80;;;-0.50;99.90;;;;;;4991347;28;20050;-85
2021/04/15 05:09:33;;;;;;;17.95;9.60;;;-0.40;99.90;;;;;;4991437;28;20114;-84
2021/04/15 05:12:05;;;;;;;19.63;8.55;;;-0.20;99.90;;;;;;4973973;28;20049;-85
2021/04/15 05:14:32;;;;;;;15.40;9.27;;;-0.10;99.90;;;;;;4973627;28;20141;-85
2021/04/15 05:17:03;;;;;;;17.55;8.52;;;0.10;99.90;;;;;;4973886;28;20450;-85
2021/04/15 05:19:33;;;;;;;12.57;8.35;;;0.20;99.90;;;;;;4974043;28;20065;-87
2021/04/15 05:22:03;;;;;;;14.95;8.65;;;0.40;99.90;;;;;;4991038;28;20042;-86
2021/04/15 05:24:35;;;;;;;11.68;8.25;;;0.60;99.90;;;;;;4991617;28;20046;-86
2021/04/15 05:27:03;;;;;;;22.77;11.23;;;0.60;99.90;;;;;;4992334;28;20758;-85
2021/04/15 05:29:34;;;;;;;14.75;7.63;;;0.90;99.90;;;;;;4992512;28;20057;-86
2021/04/15 05:32:01;;;;;;;9.98;6.93;;;1.70;99.90;;;;;;4992219;28;20039;-84
2021/04/15 05:34:30;;;;;;;13.55;7.80;;;2.00;99.90;;;;;;4991078;28;20050;-84
2021/04/15 05:37:01;;;;;;;11.23;6.72;;;2.20;99.90;;;;;;4991883;28;20083;-84
2021/04/15 05:39:30;;;;;;;33.05;9.93;;;2.40;99.90;;;;;;4973725;28;20053;-84
2021/04/15 05:42:05;;;;;;;10.15;6.35;;;2.90;99.90;;;;;;4991370;28;20074;-84
2021/04/15 05:44:39;;;;;;;8.90;6.85;;;3.40;99.90;;;;;;4974569;28;20141;-84
2021/04/15 05:47:12;;;;;;;9.55;6.07;;;3.10;99.90;;;;;;4991735;28;20123;-84
2021/04/15 05:49:45;;;;;;;7.13;5.97;;;3.30;99.90;;;;;;4973143;28;20074;-84
2021/04/15 05:52:25;;;;;;;9.65;6.38;;;3.30;99.90;;;;;;4973547;28;20046;-84
2021/04/15 05:54:53;;;;;;;46.40;27.83;;;4.00;99.90;;;;;;4990458;28;20082;-84
2021/04/15 05:57:24;;;;;;;39.58;26.00;;;4.20;99.90;;;;;;4973547;28;20389;-84
2021/04/15 05:59:58;;;;;;;11.00;9.18;;;4.30;99.90;;;;;;4991279;28;20077;-84
2021/04/15 06:02:50;;;;;;;9.35;6.65;;;4.20;99.90;;;;;;4991095;28;20074;-85
2021/04/15 06:05:25;;;;;;;9.60;5.93;;;4.40;99.90;;;;;;4973557;28;20456;-84
2021/04/15 06:07:55;;;;;;;9.88;6.80;;;4.60;99.90;;;;;;4991756;28;20133;-83
2021/04/15 06:10:24;;;;;;;8.00;6.50;;;4.80;99.90;;;;;;4991055;28;20090;-84
2021/04/15 06:12:58;;;;;;;10.13;7.90;;;5.20;99.90;;;;;;4989075;28;20050;-84
2021/04/15 06:15:29;;;;;;;14.80;10.07;;;5.50;99.90;;;;;;4989692;28;20133;-84
2021/04/15 06:18:09;;;;;;;20.85;10.55;;;5.30;99.90;;;;;;4974909;28;20046;-84
2021/04/15 06:20:38;;;;;;;14.32;10.20;;;6.10;99.90;;;;;;4999202;28;20043;-83
2021/04/15 06:23:16;;;;;;;10.80;8.25;;;5.90;99.90;;;;;;4974498;28;20043;-84
2021/04/15 06:25:45;;;;;;;13.95;8.25;;;6.20;99.90;;;;;;4990098;28;20380;-85
2021/04/15 06:28:18;;;;;;;11.65;7.85;;;7.00;99.90;;;;;;4973639;28;20497;-85
2021/04/15 06:30:55;;;;;;;11.82;7.72;;;6.70;99.90;;;;;;4990358;28;20632;-84
2021/04/15 06:33:22;;;;;;;11.60;7.93;;;6.10;99.90;;;;;;4990633;28;20066;-84
2021/04/15 06:35:53;;;;;;;10.07;8.75;;;6.40;99.90;;;;;;4989632;28;20713;-85
2021/04/15 06:38:26;;;;;;;9.32;8.00;;;6.90;99.90;;;;;;4972532;28;20483;-84
2021/04/15 06:41:27;;;;;;;12.32;9.15;;;6.60;99.90;;;;;;4988762;28;20058;-83
2021/04/15 06:44:26;;;;;;;10.02;8.05;;;6.80;99.90;;;;;;4954919;28;20061;-84
2021/04/15 06:47:28;;;;;;;8.52;7.28;;;7.60;99.90;;;;;;4992314;28;20054;-84
2021/04/15 06:54:21;;;;;;;8.90;7.55;;;8.00;99.90;;;;;;4972509;28;20484;-85
2021/04/15 06:57:07;;;;;;;9.63;7.03;;;8.60;99.90;;;;;;4910446;29;20052;-67
2021/04/15 06:59:47;;;;;;;10.32;8.15;;;8.90;99.90;;;;;;4912886;29;20130;-66
2021/04/15 07:02:33;;;;;;;9.98;7.30;;;8.50;99.90;;;;;;4912630;29;20135;-66
2021/04/15 07:05:06;;;;;;;9.93;7.20;;;8.70;99.90;;;;;;4912523;29;20296;-66
2021/04/15 07:07:36;;;;;;;8.55;7.03;;;9.00;99.90;;;;;;4912628;29;20048;-65
2021/04/15 07:10:22;;;;;;;9.50;7.05;;;9.20;99.90;;;;;;4912798;29;20096;-66
2021/04/15 07:13:22;;;;;;;10.95;7.70;;;9.50;99.90;;;;;;4914166;29;20077;-66
2021/04/15 07:16:30;;;;;;;9.93;8.10;;;8.90;99.90;;;;;;4910974;29;20135;-66
2021/04/15 07:19:30;;;;;;;8.88;7.60;;;9.20;99.90;;;;;;4912578;29;20057;-66
2021/04/15 07:22:35;;;;;;;10.13;7.65;;;9.90;99.90;;;;;;4895318;29;20056;-67
2021/04/15 07:25:14;;;;;;;10.68;8.32;;;10.00;99.90;;;;;;4916333;29;20127;-67
2021/04/15 07:28:10;;;;;;;10.98;8.88;;;9.40;99.90;;;;;;4916290;29;20048;-67
2021/04/15 07:31:06;;;;;;;9.93;7.55;;;9.70;99.90;;;;;;4916471;29;20052;-68
2021/04/15 07:34:03;;;;;;;11.10;7.85;;;10.40;99.90;;;;;;4916592;29;20052;-69
2021/04/15 07:36:38;;;;;;;8.65;7.85;;;10.50;99.90;;;;;;4916249;29;20152;-66
2021/04/15 07:39:22;;;;;;;12.25;8.13;;;11.00;99.90;;;;;;4916256;29;20576;-66
2021/04/15 07:42:11;;;;;;;11.13;8.85;;;9.00;99.90;;;;;;4916061;29;20164;-66
2021/04/15 07:44:41;;;;;;;8.90;7.63;;;9.60;99.90;;;;;;4907680;29;20070;-65
2021/04/15 07:47:31;;;;;;;10.10;8.13;;;10.40;99.90;;;;;;4914559;29;20052;-67
2021/04/15 07:50:26;;;;;;;9.73;7.85;;;10.40;99.90;;;;;;4910607;29;20072;-66
2021/04/15 07:53:17;;;;;;;9.68;8.23;;;11.00;99.90;;;;;;4903041;29;20064;-65
2021/04/15 07:56:31;;;;;;;9.57;7.93;;;10.10;99.90;;;;;;4915440;29;20040;-66
2021/04/15 07:59:16;;;;;;;9.25;8.07;;;10.40;99.90;;;;;;4902164;29;20060;-66
2021/04/15 08:01:56;;;;;;;9.70;8.32;;;11.40;99.90;;;;;;4915825;29;20054;-66
2021/04/15 08:04:48;;;;;;;11.50;8.85;;;11.00;99.90;;;;;;4914243;29;20241;-65
2021/04/15 08:07:56;;;;;;;11.82;8.52;;;11.30;99.90;;;;;;4897153;29;20093;-66
2021/04/15 08:10:50;;;;;;;8.80;7.93;;;11.90;99.90;;;;;;4894118;29;20075;-66
2021/04/15 08:13:56;;;;;;;12.07;8.40;;;11.90;99.90;;;;;;4898706;29;20076;-66
2021/04/15 08:16:36;;;;;;;10.68;9.35;;;11.20;99.90;;;;;;4893207;29;20060;-66
2021/04/15 08:19:25;;;;;;;12.45;9.27;;;10.70;99.90;;;;;;4913271;29;20131;-66
2021/04/15 08:21:58;;;;;;;13.80;9.55;;;10.60;99.90;;;;;;4915307;29;20390;-65
2021/04/15 08:24:33;;;;;;;12.13;8.85;;;10.40;99.90;;;;;;4915104;29;20080;-67
2021/04/15 08:27:29;;;;;;;12.90;9.20;;;12.10;99.90;;;;;;4896276;29;20044;-66
2021/04/15 08:30:31;;;;;;;14.15;8.90;;;12.10;99.90;;;;;;4911756;29;20504;-67
2021/04/15 08:33:26;;;;;;;11.25;9.07;;;11.90;99.90;;;;;;4911791;29;20043;-67
2021/04/15 08:36:26;;;;;;;11.77;8.77;;;11.70;99.90;;;;;;4913825;29;20131;-68
2021/04/15 08:39:03;;;;;;;9.88;8.48;;;12.80;99.90;;;;;;4914838;29;20527;-67
2021/04/15 08:41:33;;;;;;;;;;;12.80;99.90;;;;;;4915607;29;20396;-68
2021/04/15 08:44:29;;;;;;;10.95;9.40;;;12.80;99.90;;;;;;4914420;29;19950;-68
2021/04/15 08:47:16;;;;;;;10.85;9.85;;;11.30;99.90;;;;;;4912234;29;20056;-68
2021/04/15 08:49:49;;;;;;;14.98;9.23;;;10.70;99.90;;;;;;4904569;29;20073;-69
2021/04/15 08:52:26;;;;;;;9.57;8.32;;;10.50;99.90;;;;;;4903074;29;20496;-68
2021/04/15 08:55:18;;;;;;;11.23;10.10;;;10.60;99.90;;;;;;4914550;29;20119;-68
2021/04/15 08:57:59;;;;;;;13.18;9.27;;;10.40;99.90;;;;;;4911996;29;20048;-68
2021/04/15 09:00:33;;;;;;;11.55;8.65;;;11.20;99.90;;;;;;4914480;29;20496;-68
2021/04/15 09:03:20;;;;;;;11.20;8.00;;;11.50;99.90;;;;;;4914219;29;20052;-69
2021/04/15 09:06:18;;;;;;;13.07;8.07;;;11.50;99.90;;;;;;4914639;29;20123;-67
2021/04/15 09:09:07;;;;;;;11.18;8.98;;;11.20;99.90;;;;;;4914223;29;20544;-69
2021/04/15 09:11:40;;;;;;;13.27;7.80;;;11.90;99.90;;;;;;4914365;29;20083;-67
2021/04/15 09:14:20;;;;;;;9.70;7.15;;;12.30;99.90;;;;;;4914353;29;20182;-68
2021/04/15 09:16:56;;;;;;;10.32;7.65;;;11.90;99.40;;;;;;4913432;29;20040;-67
2021/04/15 09:19:36;;;;;;;10.82;7.57;;;11.00;99.90;;;;;;4914015;29;20075;-68
2021/04/15 09:22:19;;;;;;;10.15;7.38;;;10.80;99.90;;;;;;4896988;29;20182;-66
2021/04/15 09:24:55;;;;;;;11.18;8.40;;;11.10;99.90;;;;;;4909675;29;20049;-67
2021/04/15 09:27:29;;;;;;;11.18;8.48;;;11.00;99.90;;;;;;4915781;29;20144;-67
2021/04/15 09:30:02;;;;;;;11.13;9.13;;;11.60;99.90;;;;;;4916121;29;20101;-67
2021/04/15 09:32:41;;;;;;;10.93;7.90;;;11.80;99.90;;;;;;4915059;29;20052;-67
2021/04/15 09:35:29;;;;;;;12.27;8.57;;;11.40;99.90;;;;;;4914888;29;20196;-69
2021/04/15 09:38:20;;;;;;;12.45;7.95;;;11.20;99.90;;;;;;4905412;29;20055;-65
2021/04/15 09:41:08;;;;;;;12.55;8.98;;;10.90;99.90;;;;;;4910040;29;20060;-67
2021/04/15 09:44:02;;;;;;;13.43;8.65;;;11.30;99.90;;;;;;4895367;29;20049;-68
2021/04/15 09:46:37;;;;;;;13.07;8.10;;;12.10;99.60;;;;;;4910138;29;20048;-70
2021/04/15 09:49:21;;;;;;;9.70;7.22;;;12.80;97.90;;;;;;4913875;29;20128;-68
2021/04/15 09:52:31;;;;;;;9.65;7.85;;;11.70;96.80;;;;;;4914034;29;20073;-69
2021/04/15 09:55:12;;;;;;;10.80;7.22;;;12.50;97.10;;;;;;4913256;29;20055;-68
2021/04/15 09:57:45;;;;;;;8.98;8.07;;;12.40;96.40;;;;;;4912882;29;20133;-67
2021/04/15 10:00:21;;;;;;;9.82;7.55;;;12.60;96.50;;;;;;4909920;29;20056;-67
2021/04/15 10:03:00;;;;;;;9.85;7.93;;;13.10;96.10;;;;;;4907239;29;20055;-65
2021/04/15 10:05:46;;;;;;;9.30;7.35;;;12.30;97.00;;;;;;4913229;29;20040;-66
2021/04/15 10:08:25;;;;;;;12.02;8.77;;;11.50;98.30;;;;;;4910269;29;20048;-67
2021/04/15 10:11:00;;;;;;;8.68;7.53;;;11.90;97.80;;;;;;4912786;29;20050;-67
2021/04/15 10:13:41;;;;;;;8.10;6.70;;;12.10;96.40;;;;;;4910600;29;20193;-67
2021/04/15 10:16:20;;;;;;;8.85;6.65;;;12.30;95.20;;;;;;4907586;29;20055;-67
2021/04/15 10:19:31;;;;;;;9.45;6.15;;;11.90;95.70;;;;;;4909811;29;20080;-67
2021/04/15 10:22:04;;;;;;;6.97;6.00;;;11.80;96.50;;;;;;4918378;29;20139;-67
2021/04/15 10:24:35;;;;;;;10.05;6.93;;;12.60;94.90;;;;;;4909466;29;20133;-67
2021/04/15 10:27:46;;;;;;;9.52;5.65;;;11.50;96.30;;;;;;4908898;29;20040;-67
2021/04/15 10:31:08;;;;;;;8.38;4.82;;;13.10;94.10;;;;;;4897448;29;20191;-65
2021/04/15 10:34:01;;;;;;;8.00;6.28;;;13.00;91.30;;;;;;4915125;29;20051;-66
2021/04/15 10:36:52;;;;;;;12.07;6.18;;;12.90;93.50;;;;;;4899025;29;20050;-66
2021/04/15 10:39:56;;;;;;;9.27;6.38;;;12.50;94.90;;;;;;4916530;29;20493;-67
2021/04/15 10:42:59;;;;;;;9.07;6.50;;;13.60;92.80;;;;;;4908806;29;20079;-67
2021/04/15 10:45:59;;;;;;;10.23;6.93;;;13.10;92.90;;;;;;4911059;29;20453;-66
2021/04/15 10:48:43;;;;;;;10.88;6.75;;;12.60;94.50;;;;;;4902785;29;20095;-67
2021/04/15 10:51:23;;;;;;;11.98;6.18;;;12.20;94.00;;;;;;4911707;29;20044;-67
2021/04/15 10:53:52;;;;;;;9.95;5.88;;;12.10;94.20;;;;;;4911044;29;20081;-67
2021/04/15 10:56:45;;;;;;;11.57;5.93;;;11.70;93.20;;;;;;4913080;29;20122;-67
2021/04/15 10:59:30;;;;;;;6.47;5.18;;;11.70;94.60;;;;;;4911480;29;20051;-67
2021/04/15 11:02:28;;;;;;;6.78;4.03;;;13.00;90.40;;;;;;4915166;29;20047;-68
2021/04/15 11:04:55;;;;;;;;;;;11.90;90.00;;;;;;4922066;29;20056;-68
2021/04/15 11:07:27;;;;;;;7.43;4.22;;;11.50;91.50;;;;;;4915603;29;19975;-68
2021/04/15 11:09:56;;;;;;;6.72;4.78;;;11.70;90.20;;;;;;4909986;29;20051;-66
2021/04/15 11:12:28;;;;;;;10.95;4.50;;;11.50;92.30;;;;;;4911389;29;20120;-67
2021/04/15 11:15:06;;;;;;;7.35;4.15;;;12.20;90.20;;;;;;4910021;29;20130;-68
2021/04/15 11:17:35;;;;;;;10.20;4.35;;;12.50;87.60;;;;;;4890097;29;20055;-68
2021/04/15 11:20:25;;;;;;;7.38;4.18;;;12.60;88.10;;;;;;4910645;29;20044;-67
2021/04/15 11:22:57;;;;;;;6.88;4.40;;;10.90;90.70;;;;;;4912505;29;20051;-67
2021/04/15 11:25:28;;;;;;;7.63;4.88;;;10.80;92.20;;;;;;4912277;29;20054;-67
2021/04/15 11:27:57;;;;;;;6.95;4.97;;;11.10;90.90;;;;;;4910060;29;20048;-68
2021/04/15 11:30:36;;;;;;;6.22;4.20;;;10.70;93.10;;;;;;4912189;29;20424;-67
2021/04/15 11:33:04;;;;;;;7.25;4.85;;;10.30;92.50;;;;;;4911223;29;20052;-67
2021/04/15 11:35:31;;;;;;;7.60;4.22;;;10.30;92.10;;;;;;4906704;29;20048;-66
2021/04/15 11:38:18;;;;;;;9.07;4.72;;;10.50;90.90;;;;;;4909421;29;20115;-66
2021/04/15 11:40:47;;;;;;;6.60;4.30;;;10.30;91.90;;;;;;4912511;29;20127;-66
2021/04/15 11:43:29;;;;;;;6.28;4.07;;;11.20;91.90;;;;;;4909374;29;20329;-66
2021/04/15 11:46:11;;;;;;;6.82;3.92;;;12.30;88.90;;;;;;4911835;29;20550;-68
2021/04/15 11:48:39;;;;;;;7.50;3.95;;;12.30;86.10;;;;;;4909344;29;20048;-67
2021/04/15 11:51:27;;;;;;;5.85;3.80;;;12.50;84.80;;;;;;4907660;29;20120;-67
2021/04/15 11:53:55;;;;;;;8.25;4.50;;;11.80;90.30;;;;;;4901008;29;20052;-67
2021/04/15 11:56:33;;;;;;;7.88;5.05;;;11.60;92.80;;;;;;4911492;29;20052;-67
2021/04/15 11:59:22;;;;;;;7.57;5.53;;;11.20;93.90;;;;;;4912137;29;20119;-67
2021/04/15 12:01:51;;;;;;;7.70;5.45;;;10.40;95.20;;;;;;4912930;29;20083;-67
2021/04/15 12:04:26;;;;;;;8.50;4.63;;;10.30;95.60;;;;;;4912162;29;20062;-67
2021/04/15 12:06:59;;;;;;;8.40;4.50;;;10.90;95.30;;;;;;4912031;29;20048;-67
2021/04/15 12:09:33;;;;;;;6.05;4.07;;;11.60;94.20;;;;;;4913452;29;20124;-67
2021/04/15 12:12:08;;;;;;;5.53;4.53;;;11.50;93.20;;;;;;4914941;29;20397;-67
2021/04/15 12:14:37;;;;;;;8.65;4.88;;;12.20;92.50;;;;;;4915419;29;20449;-67
2021/04/15 12:17:11;;;;;;;9.25;4.68;;;11.30;93.20;;;;;;4915293;29;20044;-67
2021/04/15 12:19:50;;;;;;;7.57;5.30;;;11.30;93.50;;;;;;4915588;29;20051;-67
2021/04/15 12:22:21;;;;;;;7.70;4.75;;;10.80;94.30;;;;;;4915667;29;20050;-68
2021/04/15 12:24:53;;;;;;;11.68;5.32;;;10.30;94.90;;;;;;4915614;29;20151;-68
2021/04/15 12:27:24;;;;;;;8.82;5.32;;;10.40;96.00;;;;;;4914829;29;20415;-67
2021/04/15 12:29:57;;;;;;;12.07;6.05;;;10.10;96.30;;;;;;4915556;29;20412;-67
2021/04/15 12:32:33;;;;;;;7.97;4.95;;;10.00;96.90;;;;;;4929953;29;20056;-67
2021/04/15 12:35:20;;;;;;;9.45;5.35;;;10.60;97.10;;;;;;4914816;29;20051;-69
2021/04/15 12:37:53;;;;;;;5.93;4.70;;;11.00;96.10;;;;;;4915589;29;20070;-69
2021/04/15 12:40:30;;;;;;;7.78;4.82;;;12.80;93.40;;;;;;4914608;29;20140;-64
2021/04/15 12:42:59;;;;;;;;;;;12.30;92.80;;;;;;4914823;29;20143;-66
2021/04/15 12:45:32;;;;;;;6.38;4.32;;;12.40;91.90;;;;;;4915388;29;20426;-66
2021/04/15 12:48:01;;;;;;;19.13;5.78;;;12.20;91.70;;;;;;4914006;29;20044;-68
2021/04/15 12:50:29;;;;;;;5.53;4.70;;;12.50;92.50;;;;;;4908265;29;20397;-67
2021/04/15 12:52:56;;;;;;;9.68;5.47;;;13.10;91.20;;;;;;4910422;29;20052;-67
2021/04/15 12:55:25;;;;;;;5.63;4.72;;;13.70;89.70;;;;;;4903419;29;20058;-67
2021/04/15 12:57:54;;;;;;;10.30;5.15;;;14.00;89.50;;;;;;4917064;29;20054;-67
2021/04/15 13:00:32;;;;;;;8.20;4.80;;;13.30;87.50;;;;;;4897563;29;20092;-67
2021/04/15 13:03:08;;;;;;;7.40;4.63;;;12.10;90.50;;;;;;4925999;29;20122;-67
2021/04/15 13:06:03;;;;;;;12.63;5.13;;;11.20;91.70;;;;;;4913699;29;20132;-67
2021/04/15 13:08:46;;;;;;;9.23;5.32;;;10.80;92.80;;;;;;4913938;29;20497;-67
2021/04/15 13:11:38;;;;;;;6.32;5.15;;;10.40;92.50;;;;;;4909073;29;20075;-65
2021/04/15 13:14:28;;;;;;;8.52;4.80;;;10.20;94.00;;;;;;5023279;23;20042;-68
2021/04/15 13:16:56;;;;;;;9.57;5.13;;;10.60;93.60;;;;;;4970915;28;20499;-67
2021/04/15 13:19:54;;;;;;;6.68;4.18;;;10.10;94.70;;;;;;4972398;28;20043;-67
2021/04/15 13:22:29;;;;;;;7.05;4.80;;;10.20;93.90;;;;;;4971367;28;20454;-67
2021/04/15 13:25:16;;;;;;;6.82;3.72;;;10.10;90.40;;;;;;4972794;28;20491;-67
2021/04/15 13:28:04;;;;;;;7.22;4.35;;;10.20;91.60;;;;;;4971312;28;20530;-67
2021/04/15 13:30:51;;;;;;;7.10;3.72;;;10.30;91.40;;;;;;4971794;28;20043;-67
2021/04/15 14:06:44;;;;;;;4.88;2.58;;;11.70;72.50;;;;;;5912806;23;19921;-65
2021/04/15 14:09:19;;;;;;;4.47;2.78;;;11.80;71.40;;;;;;4932608;29;20050;-65
2021/04/15 14:11:51;;;;;;;7.63;3.20;;;10.90;75.10;;;;;;4929163;29;20333;-68
2021/04/15 14:14:43;;;;;;;6.78;3.40;;;10.40;77.20;;;;;;4915449;29;20758;-67
2021/04/15 14:17:19;;;;;;;4.70;3.70;;;9.70;80.30;;;;;;4923472;29;20047;-68
2021/04/15 14:19:47;;;;;;;6.53;3.53;;;9.70;81.30;;;;;;4933048;29;20067;-68
2021/04/15 14:22:21;;;;;;;6.43;3.28;;;9.50;83.00;;;;;;4961829;23;20043;-69
2021/04/15 14:25:04;;;;;;;3.38;3.03;;;9.60;81.40;;;;;;4969867;28;20066;-68
2021/04/15 14:27:34;;;;;;;4.43;3.28;;;9.30;81.60;;;;;;4963620;28;20543;-67
2021/04/15 14:30:10;;;;;;;7.97;4.10;;;9.40;83.30;;;;;;4971413;28;20046;-67
2021/04/15 14:32:38;;;;;;;4.90;3.88;;;9.30;83.10;;;;;;4977168;28;20092;-67
2021/04/15 14:35:17;;;;;;;4.15;3.22;;;9.30;83.60;;;;;;4953752;28;20055;-66
2021/04/15 14:37:46;;;;;;;8.52;3.40;;;9.40;84.00;;;;;;4988035;28;20068;-65
2021/04/15 14:40:27;;;;;;;7.20;4.45;;;9.40;85.10;;;;;;4989686;28;20050;-67
2021/04/15 14:42:54;;;;;;;8.60;4.18;;;9.50;86.50;;;;;;4987075;28;20042;-68
2021/04/15 14:45:27;;;;;;;7.47;4.10;;;9.50;87.10;;;;;;4990627;28;20050;-69
2021/04/15 14:47:57;;;;;;;8.52;4.85;;;9.50;88.70;;;;;;4990668;28;20105;-67
2021/04/15 14:50:28;;;;;;;7.90;4.60;;;9.50;88.00;;;;;;4984317;28;20089;-67
2021/04/15 14:53:08;;;;;;;7.53;4.13;;;9.60;88.30;;;;;;4972212;28;20141;-67
2021/04/15 14:55:35;;;;;;;6.57;3.88;;;9.70;87.70;;;;;;4971393;28;20118;-67
2021/04/15 14:58:04;;;;;;;5.85;3.90;;;9.90;88.80;;;;;;4974806;28;20041;-66
2021/04/15 15:00:46;;;;;;;7.82;4.68;;;10.00;87.20;;;;;;4982037;28;20046;-67
2021/04/15 15:03:19;;;;;;;4.55;3.90;;;10.10;87.00;;;;;;4988829;28;20568;-67
2021/04/15 15:05:46;;;;;;;6.32;3.85;;;10.00;86.90;;;;;;4990200;28;20042;-68
2021/04/15 15:08:14;;;;;;;;;;;10.00;89.60;;;;;;4988903;28;20038;-67
2021/04/15 15:10:41;;;;;;;9.73;5.18;;;10.00;88.10;;;;;;4982995;28;19921;-68
2021/04/15 15:13:10;;;;;;;5.90;4.35;;;10.00;88.30;;;;;;4970969;28;20137;-66
2021/04/15 15:15:38;;;;;;;6.30;4.43;;;10.10;89.50;;;;;;4988803;28;20049;-67
2021/04/15 15:18:07;;;;;;;6.50;3.88;;;10.20;88.00;;;;;;4970756;28;20130;-65
2021/04/15 15:20:47;;;;;;;5.35;4.50;;;10.10;89.10;;;;;;4990190;28;20038;-67
2021/04/15 15:23:34;;;;;;;6.72;4.18;;;10.00;88.60;;;;;;4988211;28;20039;-67
2021/04/15 15:26:20;;;;;;;5.47;4.55;;;10.10;89.40;;;;;;4985273;28;20069;-67
2021/04/15 15:28:59;;;;;;;4.60;3.95;;;10.20;86.70;;;;;;4986017;28;20102;-67
2021/04/15 15:31:31;;;;;;;7.07;3.75;;;10.20;85.90;;;;;;4987009;28;20506;-67
2021/04/15 15:34:11;;;;;;;5.45;3.50;;;10.00;86.20;;;;;;4987662;28;20138;-67
2021/04/15 15:36:38;;;;;;;5.65;3.45;;;9.60;87.30;;;;;;4986815;28;20046;-66
2021/04/15 15:39:06;;;;;;;5.20;3.78;;;9.40;88.70;;;;;;4963714;28;20581;-66
2021/04/15 15:41:45;;;;;;;5.45;3.60;;;9.30;89.80;;;;;;4976216;28;20065;-67
2021/04/15 15:44:41;;;;;;;6.57;3.70;;;9.30;90.70;;;;;;4965901;28;20062;-67
2021/04/15 15:47:08;;;;;;;6.07;3.88;;;9.10;91.40;;;;;;4973280;28;20057;-67
2021/04/15 15:49:37;;;;;;;7.07;3.47;;;8.80;92.20;;;;;;4956391;28;20066;-67
2021/04/15 15:52:08;;;;;;;6.45;3.55;;;8.80;92.60;;;;;;4972392;28;20470;-66
2021/04/15 15:54:47;;;;;;;5.93;4.22;;;8.60;92.80;;;;;;4973920;28;20046;-66
2021/04/15 15:57:27;;;;;;;4.38;3.83;;;8.70;93.10;;;;;;4973725;28;20449;-67
2021/04/15 16:00:10;;;;;;;5.03;3.45;;;8.80;93.30;;;;;;4974388;28;20050;-66
2021/04/15 16:02:44;;;;;;;5.80;4.10;;;9.00;93.10;;;;;;4973772;28;20051;-67
2021/04/15 16:05:26;;;;;;;4.15;3.53;;;8.90;92.80;;;;;;4991963;28;20528;-68
2021/04/15 16:07:55;;;;;;;5.30;2.80;;;8.80;91.90;;;;;;4993020;28;20542;-67
2021/04/15 16:10:35;;;;;;;6.25;3.33;;;8.70;91.00;;;;;;4975923;28;20049;-67
2021/04/15 16:13:03;;;;;;;4.03;3.20;;;8.70;90.90;;;;;;4993520;28;20128;-66
2021/04/15 16:15:42;;;;;;;4.88;2.60;;;8.60;91.70;;;;;;4993328;28;20049;-65
2021/04/15 16:18:12;;;;;;;4.40;3.28;;;8.70;91.20;;;;;;4993447;28;20042;-67
2021/04/15 16:20:41;;;;;;;5.03;2.53;;;8.80;91.60;;;;;;4993761;28;20509;-67
2021/04/15 16:23:10;;;;;;;6.78;3.03;;;8.70;91.30;;;;;;4993154;28;20043;-67
2021/04/15 16:25:38;;;;;;;6.03;3.88;;;8.80;91.20;;;;;;4993975;28;20049;-68
2021/04/15 16:28:05;;;;;;;4.15;2.58;;;8.70;92.10;;;;;;4993040;28;20410;-66
2021/04/15 16:30:34;;;;;;;2.42;2.22;;;8.80;91.50;;;;;;4993139;28;20049;-68
2021/04/15 16:33:01;;;;;;;3.35;2.60;;;8.80;91.60;;;;;;4992897;28;20042;-67
2021/04/15 16:35:28;;;;;;;4.25;2.30;;;8.80;91.10;;;;;;4975342;28;20078;-67
2021/04/15 16:37:56;;;;;;;;;;;8.80;91.40;;;;;;4992956;28;20046;-67
2021/04/15 16:40:24;;;;;;;3.63;2.38;;;8.80;91.30;;;;;;5007588;28;19922;-67
2021/04/15 16:42:51;;;;;;;4.07;3.00;;;8.80;91.60;;;;;;4992809;28;20038;-67
2021/04/15 16:45:19;;;;;;;3.45;2.83;;;8.80;92.10;;;;;;4991300;28;20081;-67
2021/04/15 16:47:48;;;;;;;5.10;3.05;;;8.90;92.70;;;;;;4992394;28;20042;-66
2021/04/15 16:50:18;;;;;;;4.32;2.70;;;8.80;93.20;;;;;;4992587;28;20387;-67
2021/04/15 16:52:46;;;;;;;3.58;2.20;;;8.70;93.50;;;;;;4992521;28;20058;-66
2021/04/15 16:55:14;;;;;;;2.25;1.92;;;8.60;92.90;;;;;;4991092;28;20049;-66
2021/04/15 16:57:40;;;;;;;3.88;2.05;;;8.50;92.80;;;;;;4991862;28;20147;-67
2021/04/15 17:00:12;;;;;;;2.92;1.95;;;8.50;92.80;;;;;;4992728;28;20167;-67
2021/04/15 17:02:38;;;;;;;2.33;1.83;;;8.40;92.60;;;;;;4992380;28;20122;-67
2021/04/15 17:05:06;;;;;;;2.78;2.13;;;8.40;93.00;;;;;;4992316;28;20038;-66
2021/04/15 17:07:32;;;;;;;2.40;1.83;;;8.30;92.50;;;;;;4992895;28;20455;-67
2021/04/15 17:09:59;;;;;;;3.20;1.85;;;8.10;92.50;;;;;;4994209;28;20054;-67
2021/04/15 17:12:25;;;;;;;3.95;2.10;;;8.00;92.40;;;;;;4993762;28;20513;-67
2021/04/15 17:14:52;;;;;;;2.83;2.33;;;8.00;93.10;;;;;;4990655;28;20528;-68
2021/04/15 17:17:19;;;;;;;4.40;2.10;;;8.00;93.20;;;;;;4991887;28;20222;-66
2021/04/15 17:19:46;;;;;;;3.45;1.80;;;7.90;93.20;;;;;;4992212;28;20400;-68
2021/04/15 17:22:12;;;;;;;4.18;1.95;;;7.80;94.10;;;;;;4991986;28;20082;-67
2021/04/15 17:24:40;;;;;;;3.75;2.00;;;7.80;94.00;;;;;;4991681;28;20522;-66
2021/04/15 17:27:07;;;;;;;3.72;2.25;;;7.70;94.30;;;;;;4991887;28;20046;-68
2021/04/15 17:29:35;;;;;;;3.78;2.10;;;7.70;94.80;;;;;;4991814;28;20494;-68
2021/04/15 17:32:03;;;;;;;2.47;1.85;;;7.70;95.30;;;;;;4991701;28;20550;-67
2021/04/15 17:34:32;;;;;;;2.20;1.77;;;7.60;95.60;;;;;;4992398;28;20053;-68
2021/04/15 17:36:59;;;;;;;2.00;1.73;;;7.50;95.90;;;;;;4974197;28;20061;-66
2021/04/15 17:39:29;;;;;;;2.95;2.25;;;7.50;96.30;;;;;;4991567;28;20125;-67
2021/04/15 17:41:56;;;;;;;2.88;1.92;;;7.40;97.10;;;;;;4991798;28;20403;-67
2021/04/15 17:44:24;;;;;;;2.80;2.15;;;7.40;97.70;;;;;;4991945;28;20443;-65
2021/04/15 17:46:50;;;;;;;6.93;3.30;;;7.30;98.50;;;;;;4991832;28;20046;-66
2021/04/15 17:49:17;;;;;;;;;;;7.20;99.90;;;;;;4991933;28;20471;-66
2021/04/15 17:51:50;;;;;;;8.95;4.57;;;7.00;99.90;;;;;;4991683;28;19980;-67
2021/04/15 17:54:17;;;;;;;5.88;3.55;;;7.00;99.90;;;;;;4973999;28;20050;-67
2021/04/15 17:56:43;;;;;;;5.28;3.40;;;6.80;99.90;;;;;;4991373;28;20054;-66
2021/04/15 17:59:10;;;;;;;6.78;3.72;;;6.80;99.90;;;;;;4989705;28;20047;-67
2021/04/15 18:01:37;;;;;;;5.30;3.67;;;6.70;99.90;;;;;;4992503;28;20458;-68
2021/04/15 18:04:04;;;;;;;7.78;3.20;;;6.70;99.90;;;;;;4991226;28;20049;-68
2021/04/15 18:06:30;;;;;;;4.97;3.20;;;6.60;99.90;;;;;;4991086;28;20081;-67
2021/04/15 18:08:58;;;;;;;;;;;6.50;99.90;;;;;;4991289;28;20053;-67
2021/04/15 18:11:25;;;;;;;6.60;3.60;;;6.50;99.90;;;;;;4991576;28;20008;-67
2021/04/15 18:13:53;;;;;;;7.38;3.85;;;6.50;99.90;;;;;;4991571;28;20042;-67
2021/04/15 18:16:21;;;;;;;4.03;3.35;;;6.40;99.90;;;;;;4973551;28;20133;-67
2021/04/15 18:18:47;;;;;;;8.90;5.43;;;6.40;99.90;;;;;;4973391;28;20054;-66
2021/04/15 18:21:17;;;;;;;6.65;3.80;;;6.30;99.90;;;;;;4991044;28;20100;-67
2021/04/15 18:23:44;;;;;;;6.75;3.67;;;6.30;99.90;;;;;;4990962;28;20113;-67
2021/04/15 18:26:13;;;;;;;8.55;4.45;;;6.20;99.90;;;;;;4991007;28;20042;-68
2021/04/15 18:28:40;;;;;;;9.35;4.72;;;6.20;99.90;;;;;;4990725;28;20066;-67
2021/04/15 18:31:10;;;;;;;6.32;4.43;;;6.20;99.90;;;;;;4990606;28;20069;-67
2021/04/15 18:33:40;;;;;;;8.10;4.13;;;6.10;99.90;;;;;;4991249;28;20121;-66
2021/04/15 18:36:08;;;;;;;6.32;4.75;;;6.10;99.90;;;;;;4973259;28;20050;-68
2021/04/15 18:38:35;;;;;;;13.45;5.95;;;6.00;99.90;;;;;;4973622;28;20042;-68
2021/04/15 18:41:05;;;;;;;10.85;6.10;;;6.00;99.90;;;;;;4990623;28;20512;-68
2021/04/15 18:43:33;;;;;;;7.20;5.55;;;6.00;99.90;;;;;;4991002;28;20042;-66
2021/04/15 18:46:00;;;;;;;11.93;4.90;;;6.00;99.90;;;;;;4990400;28;20046;-67
2021/04/15 18:48:27;;;;;;;9.45;5.18;;;6.00;99.90;;;;;;4990371;28;20460;-66
2021/04/15 18:50:56;;;;;;;9.55;5.00;;;5.90;99.90;;;;;;4990610;28;20417;-67
2021/04/15 18:53:23;;;;;;;48.92;20.02;;;5.90;99.90;;;;;;4990234;28;20133;-67
2021/04/15 18:55:50;;;;;;;19.63;8.05;;;5.90;99.90;;;;;;4990593;28;20046;-68
2021/04/15 18:58:20;;;;;;;8.45;5.93;;;5.90;99.90;;;;;;4990526;28;20410;-67
2021/04/15 19:00:50;;;;;;;11.30;10.00;;;5.90;99.90;;;;;;4990581;28;20050;-67
2021/04/15 19:03:16;;;;;;;5.88;3.00;;;5.80;99.90;;;;;;4990660;28;20065;-67
2021/04/15 19:05:43;;;;;;;6.85;4.30;;;5.80;99.90;;;;;;4973345;28;20101;-67
2021/04/15 19:08:10;;;;;;;9.60;5.72;;;5.80;99.90;;;;;;4991014;28;20046;-66